sensor_id;sensor_type;location;lat;lon;timestamp;P1;durP1;ratioP1;P2;durP2;ratioP2
11548;SDS011;61444;59.472;18.306;2023-04-06T00:02:03;4.73;;;2.17;;
11548;SDS011;61444;59.472;18.306;2023-04-06T00:04:14;5.47;;;2.17;;
11548;SDS011;61444;59.472;18.306;2023-04-06T00:06:24;2.93;;;2.10;;
11548;SDS011;61444;59.472;18.306;2023-04-06T00:08:33;3.00;;;1.97;;
11548;SDS011;61444;59.472;18.306;2023-04-06T00:10:42;5.33;;;2.10;;
11548;SDS011;61444;59.472;18.306;2023-04-06T00:12:51;3.20;;;2.20;;
11548;SDS011;61444;59.472;18.306;2023-04-06T00:15:00;4.87;;;2.00;;
11548;SDS011;61444;59.472;18.306;2023-04-06T00:17:12;3.50;;;2.27;;
11548;SDS011;61444;59.472;18.306;2023-04-06T00:19:22;2.87;;;1.97;;
11548;SDS011;61444;59.472;18.306;2023-04-06T00:21:32;3.57;;;1.60;;
11548;SDS011;61444;59.472;18.306;2023-04-06T00:23:41;3.53;;;2.17;;
11548;SDS011;61444;59.472;18.306;2023-04-06T00:25:50;3.53;;;2.10;;
11548;SDS011;61444;59.472;18.306;2023-04-06T00:28:00;4.13;;;1.97;;
11548;SDS011;61444;59.472;18.306;2023-04-06T00:30:10;2.77;;;2.00;;
11548;SDS011;61444;59.472;18.306;2023-04-06T00:32:19;5.37;;;1.90;;
11548;SDS011;61444;59.472;18.306;2023-04-06T00:34:29;4.80;;;2.40;;
11548;SDS011;61444;59.472;18.306;2023-04-06T00:36:38;4.33;;;2.27;;
11548;SDS011;61444;59.472;18.306;2023-04-06T00:38:47;3.73;;;2.30;;
11548;SDS011;61444;59.472;18.306;2023-04-06T00:40:56;5.30;;;2.20;;
11548;SDS011;61444;59.472;18.306;2023-04-06T00:43:05;3.03;;;2.10;;
11548;SDS011;61444;59.472;18.306;2023-04-06T00:45:15;4.70;;;2.63;;
11548;SDS011;61444;59.472;18.306;2023-04-06T00:47:25;4.60;;;2.57;;
11548;SDS011;61444;59.472;18.306;2023-04-06T00:49:35;4.70;;;2.77;;
11548;SDS011;61444;59.472;18.306;2023-04-06T00:51:44;4.60;;;2.70;;
11548;SDS011;61444;59.472;18.306;2023-04-06T00:53:53;3.27;;;2.30;;
11548;SDS011;61444;59.472;18.306;2023-04-06T00:56:02;5.37;;;2.97;;
11548;SDS011;61444;59.472;18.306;2023-04-06T00:58:11;4.60;;;2.60;;
11548;SDS011;61444;59.472;18.306;2023-04-06T01:00:21;4.10;;;2.73;;
11548;SDS011;61444;59.472;18.306;2023-04-06T01:02:31;4.37;;;2.47;;
11548;SDS011;61444;59.472;18.306;2023-04-06T01:04:42;4.63;;;2.47;;
11548;SDS011;61444;59.472;18.306;2023-04-06T01:06:51;4.03;;;2.70;;
11548;SDS011;61444;59.472;18.306;2023-04-06T01:09:00;6.60;;;2.63;;
11548;SDS011;61444;59.472;18.306;2023-04-06T01:11:09;3.33;;;2.67;;
11548;SDS011;61444;59.472;18.306;2023-04-06T01:13:18;4.07;;;2.30;;
11548;SDS011;61444;59.472;18.306;2023-04-06T01:15:27;4.67;;;2.67;;
11548;SDS011;61444;59.472;18.306;2023-04-06T01:17:37;3.70;;;2.43;;
11548;SDS011;61444;59.472;18.306;2023-04-06T01:19:48;4.33;;;2.50;;
11548;SDS011;61444;59.472;18.306;2023-04-06T01:22:00;4.20;;;2.57;;
11548;SDS011;61444;59.472;18.306;2023-04-06T01:24:10;5.23;;;2.63;;
11548;SDS011;61444;59.472;18.306;2023-04-06T01:26:19;4.27;;;2.43;;
11548;SDS011;61444;59.472;18.306;2023-04-06T01:28:29;3.50;;;2.63;;
11548;SDS011;61444;59.472;18.306;2023-04-06T01:30:38;4.03;;;2.90;;
11548;SDS011;61444;59.472;18.306;2023-04-06T01:32:47;3.83;;;2.50;;
11548;SDS011;61444;59.472;18.306;2023-04-06T01:34:56;4.23;;;2.70;;
11548;SDS011;61444;59.472;18.306;2023-04-06T01:37:06;3.17;;;2.37;;
11548;SDS011;61444;59.472;18.306;2023-04-06T01:39:16;5.93;;;2.47;;
11548;SDS011;61444;59.472;18.306;2023-04-06T01:41:25;3.40;;;2.50;;
11548;SDS011;61444;59.472;18.306;2023-04-06T01:43:34;3.93;;;2.57;;
11548;SDS011;61444;59.472;18.306;2023-04-06T01:45:43;3.87;;;2.33;;
11548;SDS011;61444;59.472;18.306;2023-04-06T01:47:52;4.97;;;2.73;;
11548;SDS011;61444;59.472;18.306;2023-04-06T01:50:03;4.80;;;2.47;;
11548;SDS011;61444;59.472;18.306;2023-04-06T01:52:12;3.63;;;2.40;;
11548;SDS011;61444;59.472;18.306;2023-04-06T01:54:23;3.67;;;2.47;;
11548;SDS011;61444;59.472;18.306;2023-04-06T01:56:32;4.20;;;2.27;;
11548;SDS011;61444;59.472;18.306;2023-04-06T01:58:42;3.47;;;2.30;;
11548;SDS011;61444;59.472;18.306;2023-04-06T02:00:52;4.50;;;2.53;;
11548;SDS011;61444;59.472;18.306;2023-04-06T02:03:03;4.67;;;2.83;;
11548;SDS011;61444;59.472;18.306;2023-04-06T02:05:14;3.70;;;2.37;;
11548;SDS011;61444;59.472;18.306;2023-04-06T02:07:31;4.50;;;2.60;;
11548;SDS011;61444;59.472;18.306;2023-04-06T02:09:53;3.40;;;2.67;;
11548;SDS011;61444;59.472;18.306;2023-04-06T02:12:05;3.30;;;2.53;;
11548;SDS011;61444;59.472;18.306;2023-04-06T02:14:16;3.80;;;2.60;;
11548;SDS011;61444;59.472;18.306;2023-04-06T02:16:31;3.43;;;2.63;;
11548;SDS011;61444;59.472;18.306;2023-04-06T02:18:52;4.20;;;2.43;;
11548;SDS011;61444;59.472;18.306;2023-04-06T02:21:04;5.27;;;2.50;;
11548;SDS011;61444;59.472;18.306;2023-04-06T02:23:18;3.90;;;2.43;;
11548;SDS011;61444;59.472;18.306;2023-04-06T02:25:38;3.93;;;2.40;;
11548;SDS011;61444;59.472;18.306;2023-04-06T02:27:49;3.83;;;2.70;;
11548;SDS011;61444;59.472;18.306;2023-04-06T02:30:03;5.93;;;2.40;;
11548;SDS011;61444;59.472;18.306;2023-04-06T02:32:27;2.80;;;1.93;;
11548;SDS011;61444;59.472;18.306;2023-04-06T02:34:42;3.50;;;2.23;;
11548;SDS011;61444;59.472;18.306;2023-04-06T02:36:51;4.50;;;2.33;;
11548;SDS011;61444;59.472;18.306;2023-04-06T02:39:04;3.07;;;2.17;;
11548;SDS011;61444;59.472;18.306;2023-04-06T02:41:30;2.83;;;2.27;;
11548;SDS011;61444;59.472;18.306;2023-04-06T02:43:46;4.33;;;2.30;;
11548;SDS011;61444;59.472;18.306;2023-04-06T02:45:57;2.97;;;1.90;;
11548;SDS011;61444;59.472;18.306;2023-04-06T02:48:09;4.83;;;2.50;;
11548;SDS011;61444;59.472;18.306;2023-04-06T02:50:22;4.53;;;2.07;;
11548;SDS011;61444;59.472;18.306;2023-04-06T02:52:35;4.00;;;2.43;;
11548;SDS011;61444;59.472;18.306;2023-04-06T02:54:54;3.83;;;2.60;;
11548;SDS011;61444;59.472;18.306;2023-04-06T02:57:08;3.23;;;2.47;;
11548;SDS011;61444;59.472;18.306;2023-04-06T02:59:21;5.63;;;2.30;;
11548;SDS011;61444;59.472;18.306;2023-04-06T03:01:38;4.67;;;2.30;;
11548;SDS011;61444;59.472;18.306;2023-04-06T03:03:51;3.43;;;2.17;;
11548;SDS011;61444;59.472;18.306;2023-04-06T03:06:06;3.70;;;2.50;;
11548;SDS011;61444;59.472;18.306;2023-04-06T03:08:24;3.40;;;2.03;;
11548;SDS011;61444;59.472;18.306;2023-04-06T03:10:34;4.90;;;2.57;;
11548;SDS011;61444;59.472;18.306;2023-04-06T03:12:52;3.73;;;2.53;;
11548;SDS011;61444;59.472;18.306;2023-04-06T03:15:10;3.57;;;2.43;;
11548;SDS011;61444;59.472;18.306;2023-04-06T03:17:28;3.40;;;2.30;;
11548;SDS011;61444;59.472;18.306;2023-04-06T03:19:42;4.17;;;2.77;;
11548;SDS011;61444;59.472;18.306;2023-04-06T03:21:56;6.70;;;3.00;;
11548;SDS011;61444;59.472;18.306;2023-04-06T03:24:08;3.53;;;2.37;;
11548;SDS011;61444;59.472;18.306;2023-04-06T03:26:24;4.50;;;2.70;;
11548;SDS011;61444;59.472;18.306;2023-04-06T03:28:40;3.50;;;2.43;;
11548;SDS011;61444;59.472;18.306;2023-04-06T03:31:01;4.50;;;2.17;;
11548;SDS011;61444;59.472;18.306;2023-04-06T03:33:11;5.13;;;2.07;;
11548;SDS011;61444;59.472;18.306;2023-04-06T03:35:33;3.57;;;2.33;;
11548;SDS011;61444;59.472;18.306;2023-04-06T03:37:48;4.83;;;2.13;;
11548;SDS011;61444;59.472;18.306;2023-04-06T03:39:58;4.37;;;2.43;;
11548;SDS011;61444;59.472;18.306;2023-04-06T03:42:11;4.07;;;2.37;;
11548;SDS011;61444;59.472;18.306;2023-04-06T03:44:28;5.77;;;2.50;;
11548;SDS011;61444;59.472;18.306;2023-04-06T03:46:43;4.03;;;2.30;;
11548;SDS011;61444;59.472;18.306;2023-04-06T03:49:00;3.53;;;2.73;;
11548;SDS011;61444;59.472;18.306;2023-04-06T03:51:12;3.43;;;2.40;;
11548;SDS011;61444;59.472;18.306;2023-04-06T03:53:24;3.10;;;2.03;;
11548;SDS011;61444;59.472;18.306;2023-04-06T03:55:40;5.07;;;2.47;;
11548;SDS011;61444;59.472;18.306;2023-04-06T03:57:52;5.87;;;2.90;;
11548;SDS011;61444;59.472;18.306;2023-04-06T04:00:11;3.63;;;2.30;;
11548;SDS011;61444;59.472;18.306;2023-04-06T04:02:21;4.27;;;2.40;;
11548;SDS011;61444;59.472;18.306;2023-04-06T04:04:41;3.37;;;2.17;;
11548;SDS011;61444;59.472;18.306;2023-04-06T04:07:00;5.37;;;2.50;;
11548;SDS011;61444;59.472;18.306;2023-04-06T04:09:16;4.07;;;2.50;;
11548;SDS011;61444;59.472;18.306;2023-04-06T04:11:36;4.30;;;2.40;;
11548;SDS011;61444;59.472;18.306;2023-04-06T04:13:46;5.73;;;2.93;;
11548;SDS011;61444;59.472;18.306;2023-04-06T04:16:00;5.73;;;2.90;;
11548;SDS011;61444;59.472;18.306;2023-04-06T04:18:11;5.93;;;2.57;;
11548;SDS011;61444;59.472;18.306;2023-04-06T04:20:22;3.60;;;2.20;;
11548;SDS011;61444;59.472;18.306;2023-04-06T04:22:41;4.53;;;2.90;;
11548;SDS011;61444;59.472;18.306;2023-04-06T04:25:01;4.03;;;2.80;;
11548;SDS011;61444;59.472;18.306;2023-04-06T04:27:12;5.27;;;2.60;;
11548;SDS011;61444;59.472;18.306;2023-04-06T04:29:24;4.57;;;3.10;;
11548;SDS011;61444;59.472;18.306;2023-04-06T04:31:43;3.93;;;3.00;;
11548;SDS011;61444;59.472;18.306;2023-04-06T04:33:59;6.70;;;2.80;;
11548;SDS011;61444;59.472;18.306;2023-04-06T04:36:11;5.50;;;3.03;;
11548;SDS011;61444;59.472;18.306;2023-04-06T04:38:31;5.10;;;3.00;;
11548;SDS011;61444;59.472;18.306;2023-04-06T04:40:42;4.43;;;2.90;;
11548;SDS011;61444;59.472;18.306;2023-04-06T04:42:59;3.77;;;2.60;;
11548;SDS011;61444;59.472;18.306;2023-04-06T04:45:10;6.47;;;2.90;;
11548;SDS011;61444;59.472;18.306;2023-04-06T04:47:26;5.40;;;3.17;;
11548;SDS011;61444;59.472;18.306;2023-04-06T04:49:43;3.60;;;2.63;;
11548;SDS011;61444;59.472;18.306;2023-04-06T04:51:54;4.77;;;2.70;;
11548;SDS011;61444;59.472;18.306;2023-04-06T04:54:05;3.70;;;2.53;;
11548;SDS011;61444;59.472;18.306;2023-04-06T04:56:17;5.57;;;2.50;;
11548;SDS011;61444;59.472;18.306;2023-04-06T04:58:32;5.00;;;2.57;;
11548;SDS011;61444;59.472;18.306;2023-04-06T05:00:51;5.10;;;2.93;;
11548;SDS011;61444;59.472;18.306;2023-04-06T05:03:09;4.40;;;2.50;;
11548;SDS011;61444;59.472;18.306;2023-04-06T05:05:23;9.47;;;3.93;;
11548;SDS011;61444;59.472;18.306;2023-04-06T05:07:41;4.53;;;3.10;;
11548;SDS011;61444;59.472;18.306;2023-04-06T05:10:02;3.23;;;2.43;;
11548;SDS011;61444;59.472;18.306;2023-04-06T05:12:15;8.47;;;3.50;;
11548;SDS011;61444;59.472;18.306;2023-04-06T05:14:28;6.73;;;3.60;;
11548;SDS011;61444;59.472;18.306;2023-04-06T05:16:40;5.13;;;3.53;;
11548;SDS011;61444;59.472;18.306;2023-04-06T05:18:58;4.60;;;2.90;;
11548;SDS011;61444;59.472;18.306;2023-04-06T05:21:14;5.77;;;3.13;;
11548;SDS011;61444;59.472;18.306;2023-04-06T05:23:27;5.07;;;3.37;;
11548;SDS011;61444;59.472;18.306;2023-04-06T05:25:42;5.70;;;3.70;;
11548;SDS011;61444;59.472;18.306;2023-04-06T05:27:56;5.37;;;3.73;;
11548;SDS011;61444;59.472;18.306;2023-04-06T05:30:07;5.03;;;3.27;;
11548;SDS011;61444;59.472;18.306;2023-04-06T05:32:25;7.00;;;3.47;;
11548;SDS011;61444;59.472;18.306;2023-04-06T05:34:53;4.83;;;3.20;;
11548;SDS011;61444;59.472;18.306;2023-04-06T05:37:05;6.60;;;2.70;;
11548;SDS011;61444;59.472;18.306;2023-04-06T05:39:17;4.23;;;3.07;;
11548;SDS011;61444;59.472;18.306;2023-04-06T05:41:32;6.87;;;3.50;;
11548;SDS011;61444;59.472;18.306;2023-04-06T05:43:45;5.13;;;3.27;;
11548;SDS011;61444;59.472;18.306;2023-04-06T05:45:57;6.20;;;3.53;;
11548;SDS011;61444;59.472;18.306;2023-04-06T05:48:17;5.60;;;3.23;;
11548;SDS011;61444;59.472;18.306;2023-04-06T05:50:51;4.27;;;3.00;;
11548;SDS011;61444;59.472;18.306;2023-04-06T05:53:06;4.87;;;3.00;;
11548;SDS011;61444;59.472;18.306;2023-04-06T05:55:28;3.87;;;2.90;;
11548;SDS011;61444;59.472;18.306;2023-04-06T05:57:49;4.80;;;3.20;;
11548;SDS011;61444;59.472;18.306;2023-04-06T06:00:04;5.73;;;3.50;;
11548;SDS011;61444;59.472;18.306;2023-04-06T06:02:20;6.17;;;3.73;;
11548;SDS011;61444;59.472;18.306;2023-04-06T06:04:45;5.07;;;3.63;;
11548;SDS011;61444;59.472;18.306;2023-04-06T06:07:06;5.83;;;3.70;;
11548;SDS011;61444;59.472;18.306;2023-04-06T06:09:27;6.57;;;4.17;;
11548;SDS011;61444;59.472;18.306;2023-04-06T06:11:41;6.93;;;4.20;;
11548;SDS011;61444;59.472;18.306;2023-04-06T06:13:52;5.23;;;3.60;;
11548;SDS011;61444;59.472;18.306;2023-04-06T06:16:09;5.07;;;3.57;;
11548;SDS011;61444;59.472;18.306;2023-04-06T06:18:30;7.77;;;3.93;;
11548;SDS011;61444;59.472;18.306;2023-04-06T06:20:40;6.00;;;4.20;;
11548;SDS011;61444;59.472;18.306;2023-04-06T06:22:56;8.90;;;5.50;;
11548;SDS011;61444;59.472;18.306;2023-04-06T06:25:23;7.27;;;4.53;;
11548;SDS011;61444;59.472;18.306;2023-04-06T06:27:38;7.07;;;4.37;;
11548;SDS011;61444;59.472;18.306;2023-04-06T06:29:54;7.50;;;4.17;;
11548;SDS011;61444;59.472;18.306;2023-04-06T06:32:10;6.63;;;3.97;;
11548;SDS011;61444;59.472;18.306;2023-04-06T06:34:27;4.63;;;3.60;;
11548;SDS011;61444;59.472;18.306;2023-04-06T06:36:41;6.93;;;3.97;;
11548;SDS011;61444;59.472;18.306;2023-04-06T06:38:58;6.53;;;4.43;;
11548;SDS011;61444;59.472;18.306;2023-04-06T06:41:13;5.67;;;3.80;;
11548;SDS011;61444;59.472;18.306;2023-04-06T06:43:25;5.53;;;4.40;;
11548;SDS011;61444;59.472;18.306;2023-04-06T06:45:37;5.30;;;4.17;;
11548;SDS011;61444;59.472;18.306;2023-04-06T06:47:48;8.07;;;4.43;;
11548;SDS011;61444;59.472;18.306;2023-04-06T06:50:06;6.47;;;4.33;;
11548;SDS011;61444;59.472;18.306;2023-04-06T06:52:27;5.23;;;3.63;;
11548;SDS011;61444;59.472;18.306;2023-04-06T06:54:51;5.03;;;3.03;;
11548;SDS011;61444;59.472;18.306;2023-04-06T06:57:05;3.70;;;2.70;;
11548;SDS011;61444;59.472;18.306;2023-04-06T06:59:22;5.67;;;3.20;;
11548;SDS011;61444;59.472;18.306;2023-04-06T07:01:33;5.67;;;3.20;;
11548;SDS011;61444;59.472;18.306;2023-04-06T07:03:45;4.57;;;3.40;;
11548;SDS011;61444;59.472;18.306;2023-04-06T07:05:57;4.60;;;3.67;;
11548;SDS011;61444;59.472;18.306;2023-04-06T07:08:17;4.10;;;2.90;;
11548;SDS011;61444;59.472;18.306;2023-04-06T07:10:29;3.20;;;2.53;;
11548;SDS011;61444;59.472;18.306;2023-04-06T07:12:42;3.00;;;2.50;;
11548;SDS011;61444;59.472;18.306;2023-04-06T07:15:00;3.50;;;2.63;;
11548;SDS011;61444;59.472;18.306;2023-04-06T07:17:11;2.87;;;2.27;;
11548;SDS011;61444;59.472;18.306;2023-04-06T07:19:23;4.43;;;2.30;;
11548;SDS011;61444;59.472;18.306;2023-04-06T07:21:35;3.40;;;2.63;;
11548;SDS011;61444;59.472;18.306;2023-04-06T07:23:46;3.27;;;2.20;;
11548;SDS011;61444;59.472;18.306;2023-04-06T07:26:00;3.33;;;2.23;;
11548;SDS011;61444;59.472;18.306;2023-04-06T07:28:10;2.90;;;2.60;;
11548;SDS011;61444;59.472;18.306;2023-04-06T07:30:23;2.87;;;2.20;;
11548;SDS011;61444;59.472;18.306;2023-04-06T07:32:37;3.60;;;2.57;;
11548;SDS011;61444;59.472;18.306;2023-04-06T07:34:47;3.67;;;2.23;;
11548;SDS011;61444;59.472;18.306;2023-04-06T07:36:58;3.67;;;2.60;;
11548;SDS011;61444;59.472;18.306;2023-04-06T07:39:09;3.90;;;2.47;;
11548;SDS011;61444;59.472;18.306;2023-04-06T07:41:22;3.80;;;2.30;;
11548;SDS011;61444;59.472;18.306;2023-04-06T07:43:35;3.70;;;2.40;;
11548;SDS011;61444;59.472;18.306;2023-04-06T07:45:50;3.37;;;2.27;;
11548;SDS011;61444;59.472;18.306;2023-04-06T07:48:00;3.73;;;2.30;;
11548;SDS011;61444;59.472;18.306;2023-04-06T07:50:10;3.00;;;2.23;;
11548;SDS011;61444;59.472;18.306;2023-04-06T07:52:21;2.10;;;1.70;;
11548;SDS011;61444;59.472;18.306;2023-04-06T07:54:30;4.47;;;2.30;;
11548;SDS011;61444;59.472;18.306;2023-04-06T07:56:45;3.73;;;2.40;;
11548;SDS011;61444;59.472;18.306;2023-04-06T07:58:58;2.87;;;2.13;;
11548;SDS011;61444;59.472;18.306;2023-04-06T08:01:10;2.80;;;1.77;;
11548;SDS011;61444;59.472;18.306;2023-04-06T08:03:21;3.77;;;1.90;;
11548;SDS011;61444;59.472;18.306;2023-04-06T08:05:32;2.43;;;1.80;;
11548;SDS011;61444;59.472;18.306;2023-04-06T08:07:44;3.53;;;1.97;;
11548;SDS011;61444;59.472;18.306;2023-04-06T08:09:54;2.03;;;1.83;;
11548;SDS011;61444;59.472;18.306;2023-04-06T08:12:10;2.63;;;1.83;;
11548;SDS011;61444;59.472;18.306;2023-04-06T08:14:22;3.40;;;2.00;;
11548;SDS011;61444;59.472;18.306;2023-04-06T08:16:32;2.30;;;1.90;;
11548;SDS011;61444;59.472;18.306;2023-04-06T08:18:47;2.97;;;2.23;;
11548;SDS011;61444;59.472;18.306;2023-04-06T08:20:57;4.37;;;2.00;;
11548;SDS011;61444;59.472;18.306;2023-04-06T08:23:07;2.80;;;1.70;;
11548;SDS011;61444;59.472;18.306;2023-04-06T08:25:18;2.10;;;1.53;;
11548;SDS011;61444;59.472;18.306;2023-04-06T08:27:32;1.70;;;1.57;;
11548;SDS011;61444;59.472;18.306;2023-04-06T08:29:41;1.90;;;1.40;;
11548;SDS011;61444;59.472;18.306;2023-04-06T08:31:52;2.23;;;1.33;;
11548;SDS011;61444;59.472;18.306;2023-04-06T08:34:03;1.77;;;1.50;;
11548;SDS011;61444;59.472;18.306;2023-04-06T08:36:25;1.73;;;1.40;;
11548;SDS011;61444;59.472;18.306;2023-04-06T08:38:37;1.67;;;1.43;;
11548;SDS011;61444;59.472;18.306;2023-04-06T08:40:50;2.50;;;1.60;;
11548;SDS011;61444;59.472;18.306;2023-04-06T08:43:08;2.23;;;1.40;;
11548;SDS011;61444;59.472;18.306;2023-04-06T08:45:18;2.33;;;1.50;;
11548;SDS011;61444;59.472;18.306;2023-04-06T08:47:28;2.33;;;1.50;;
11548;SDS011;61444;59.472;18.306;2023-04-06T08:49:40;2.00;;;1.50;;
11548;SDS011;61444;59.472;18.306;2023-04-06T08:51:52;1.43;;;1.27;;
11548;SDS011;61444;59.472;18.306;2023-04-06T08:54:02;2.50;;;1.80;;
11548;SDS011;61444;59.472;18.306;2023-04-06T08:56:16;1.60;;;1.50;;
11548;SDS011;61444;59.472;18.306;2023-04-06T08:58:37;2.20;;;1.50;;
11548;SDS011;61444;59.472;18.306;2023-04-06T09:00:51;2.60;;;1.67;;
11548;SDS011;61444;59.472;18.306;2023-04-06T09:03:00;3.33;;;1.50;;
11548;SDS011;61444;59.472;18.306;2023-04-06T09:05:12;2.37;;;1.40;;
11548;SDS011;61444;59.472;18.306;2023-04-06T09:07:24;1.77;;;1.30;;
11548;SDS011;61444;59.472;18.306;2023-04-06T09:09:37;2.90;;;1.43;;
11548;SDS011;61444;59.472;18.306;2023-04-06T09:11:59;2.07;;;1.43;;
11548;SDS011;61444;59.472;18.306;2023-04-06T09:14:32;1.80;;;1.30;;
11548;SDS011;61444;59.472;18.306;2023-04-06T09:16:45;1.83;;;1.30;;
11548;SDS011;61444;59.472;18.306;2023-04-06T09:18:54;3.10;;;1.33;;
11548;SDS011;61444;59.472;18.306;2023-04-06T09:21:17;1.73;;;1.30;;
11548;SDS011;61444;59.472;18.306;2023-04-06T09:23:37;1.37;;;1.20;;
11548;SDS011;61444;59.472;18.306;2023-04-06T09:25:47;2.63;;;1.40;;
11548;SDS011;61444;59.472;18.306;2023-04-06T09:28:03;3.10;;;1.40;;
11548;SDS011;61444;59.472;18.306;2023-04-06T09:30:21;1.63;;;1.10;;
11548;SDS011;61444;59.472;18.306;2023-04-06T09:32:44;1.90;;;1.20;;
11548;SDS011;61444;59.472;18.306;2023-04-06T09:35:05;2.23;;;1.23;;
11548;SDS011;61444;59.472;18.306;2023-04-06T09:37:22;1.80;;;1.50;;
11548;SDS011;61444;59.472;18.306;2023-04-06T09:39:31;2.47;;;1.70;;
11548;SDS011;61444;59.472;18.306;2023-04-06T09:41:48;1.67;;;1.40;;
11548;SDS011;61444;59.472;18.306;2023-04-06T09:44:03;2.00;;;1.23;;
11548;SDS011;61444;59.472;18.306;2023-04-06T09:46:20;1.40;;;1.27;;
11548;SDS011;61444;59.472;18.306;2023-04-06T09:48:33;1.83;;;1.40;;
11548;SDS011;61444;59.472;18.306;2023-04-06T09:50:45;2.20;;;1.40;;
11548;SDS011;61444;59.472;18.306;2023-04-06T09:52:56;1.60;;;1.20;;
11548;SDS011;61444;59.472;18.306;2023-04-06T09:55:08;2.17;;;1.53;;
11548;SDS011;61444;59.472;18.306;2023-04-06T09:57:23;2.27;;;1.20;;
11548;SDS011;61444;59.472;18.306;2023-04-06T09:59:38;2.20;;;1.20;;
11548;SDS011;61444;59.472;18.306;2023-04-06T10:01:55;1.43;;;1.10;;
11548;SDS011;61444;59.472;18.306;2023-04-06T10:04:16;2.37;;;1.27;;
11548;SDS011;61444;59.472;18.306;2023-04-06T10:06:34;1.40;;;1.20;;
11548;SDS011;61444;59.472;18.306;2023-04-06T10:08:49;1.93;;;1.40;;
11548;SDS011;61444;59.472;18.306;2023-04-06T10:11:05;1.77;;;1.30;;
11548;SDS011;61444;59.472;18.306;2023-04-06T10:13:17;1.60;;;1.50;;
11548;SDS011;61444;59.472;18.306;2023-04-06T10:15:37;2.23;;;1.27;;
11548;SDS011;61444;59.472;18.306;2023-04-06T10:17:57;2.47;;;1.23;;
11548;SDS011;61444;59.472;18.306;2023-04-06T10:20:09;1.70;;;1.20;;
11548;SDS011;61444;59.472;18.306;2023-04-06T10:22:26;2.17;;;1.30;;
11548;SDS011;61444;59.472;18.306;2023-04-06T10:24:40;1.47;;;1.30;;
11548;SDS011;61444;59.472;18.306;2023-04-06T10:27:01;1.83;;;1.23;;
11548;SDS011;61444;59.472;18.306;2023-04-06T10:29:12;2.33;;;1.50;;
11548;SDS011;61444;59.472;18.306;2023-04-06T10:31:27;1.90;;;1.20;;
11548;SDS011;61444;59.472;18.306;2023-04-06T10:33:52;1.10;;;1.00;;
11548;SDS011;61444;59.472;18.306;2023-04-06T10:36:12;1.17;;;1.07;;
11548;SDS011;61444;59.472;18.306;2023-04-06T10:38:34;2.23;;;1.40;;
11548;SDS011;61444;59.472;18.306;2023-04-06T10:40:47;2.53;;;1.30;;
11548;SDS011;61444;59.472;18.306;2023-04-06T10:43:06;1.40;;;1.23;;
11548;SDS011;61444;59.472;18.306;2023-04-06T10:45:20;1.30;;;1.20;;
11548;SDS011;61444;59.472;18.306;2023-04-06T10:47:38;3.23;;;1.07;;
11548;SDS011;61444;59.472;18.306;2023-04-06T10:49:56;8.20;;;1.57;;
11548;SDS011;61444;59.472;18.306;2023-04-06T10:52:07;1.87;;;1.20;;
11548;SDS011;61444;59.472;18.306;2023-04-06T10:54:23;3.30;;;1.47;;
11548;SDS011;61444;59.472;18.306;2023-04-06T10:56:37;2.90;;;1.30;;
11548;SDS011;61444;59.472;18.306;2023-04-06T10:58:52;1.50;;;1.20;;
11548;SDS011;61444;59.472;18.306;2023-04-06T11:01:06;1.50;;;1.40;;
11548;SDS011;61444;59.472;18.306;2023-04-06T11:03:18;3.73;;;1.80;;
11548;SDS011;61444;59.472;18.306;2023-04-06T11:05:38;2.03;;;1.40;;
11548;SDS011;61444;59.472;18.306;2023-04-06T11:07:55;2.03;;;1.50;;
11548;SDS011;61444;59.472;18.306;2023-04-06T11:10:09;1.30;;;1.20;;
11548;SDS011;61444;59.472;18.306;2023-04-06T11:12:27;1.83;;;1.20;;
11548;SDS011;61444;59.472;18.306;2023-04-06T11:14:38;1.30;;;1.20;;
11548;SDS011;61444;59.472;18.306;2023-04-06T11:16:49;1.67;;;1.30;;
11548;SDS011;61444;59.472;18.306;2023-04-06T11:19:00;2.17;;;1.43;;
11548;SDS011;61444;59.472;18.306;2023-04-06T11:21:16;1.90;;;1.50;;
11548;SDS011;61444;59.472;18.306;2023-04-06T11:23:30;2.13;;;1.50;;
11548;SDS011;61444;59.472;18.306;2023-04-06T11:25:49;2.07;;;1.50;;
11548;SDS011;61444;59.472;18.306;2023-04-06T11:28:04;1.40;;;1.30;;
11548;SDS011;61444;59.472;18.306;2023-04-06T11:30:15;1.50;;;1.40;;
11548;SDS011;61444;59.472;18.306;2023-04-06T11:32:28;1.97;;;1.30;;
11548;SDS011;61444;59.472;18.306;2023-04-06T11:34:42;1.70;;;1.37;;
11548;SDS011;61444;59.472;18.306;2023-04-06T11:36:58;1.70;;;1.30;;
11548;SDS011;61444;59.472;18.306;2023-04-06T11:39:12;1.63;;;1.47;;
11548;SDS011;61444;59.472;18.306;2023-04-06T11:41:27;1.50;;;1.20;;
11548;SDS011;61444;59.472;18.306;2023-04-06T11:43:46;1.53;;;1.07;;
11548;SDS011;61444;59.472;18.306;2023-04-06T11:46:00;1.90;;;1.40;;
11548;SDS011;61444;59.472;18.306;2023-04-06T11:48:18;1.40;;;1.30;;
11548;SDS011;61444;59.472;18.306;2023-04-06T11:50:36;3.67;;;1.60;;
11548;SDS011;61444;59.472;18.306;2023-04-06T11:52:49;1.63;;;1.53;;
11548;SDS011;61444;59.472;18.306;2023-04-06T11:55:13;2.83;;;1.33;;
11548;SDS011;61444;59.472;18.306;2023-04-06T11:57:28;1.90;;;1.37;;
11548;SDS011;61444;59.472;18.306;2023-04-06T11:59:41;2.63;;;1.50;;
11548;SDS011;61444;59.472;18.306;2023-04-06T12:01:50;1.43;;;1.30;;
11548;SDS011;61444;59.472;18.306;2023-04-06T12:04:01;1.93;;;1.13;;
11548;SDS011;61444;59.472;18.306;2023-04-06T12:06:16;1.50;;;1.30;;
11548;SDS011;61444;59.472;18.306;2023-04-06T12:08:29;1.40;;;1.20;;
11548;SDS011;61444;59.472;18.306;2023-04-06T12:10:46;1.93;;;1.40;;
11548;SDS011;61444;59.472;18.306;2023-04-06T12:13:02;1.60;;;1.50;;
11548;SDS011;61444;59.472;18.306;2023-04-06T12:15:15;1.30;;;1.20;;
11548;SDS011;61444;59.472;18.306;2023-04-06T12:17:31;1.73;;;1.30;;
11548;SDS011;61444;59.472;18.306;2023-04-06T12:19:42;1.50;;;1.40;;
11548;SDS011;61444;59.472;18.306;2023-04-06T12:21:52;2.23;;;1.50;;
11548;SDS011;61444;59.472;18.306;2023-04-06T12:24:07;1.30;;;1.20;;
11548;SDS011;61444;59.472;18.306;2023-04-06T12:26:16;1.10;;;1.00;;
11548;SDS011;61444;59.472;18.306;2023-04-06T12:28:29;2.40;;;1.40;;
11548;SDS011;61444;59.472;18.306;2023-04-06T12:30:40;3.07;;;1.40;;
11548;SDS011;61444;59.472;18.306;2023-04-06T12:32:50;1.77;;;1.60;;
11548;SDS011;61444;59.472;18.306;2023-04-06T12:35:00;1.57;;;1.43;;
11548;SDS011;61444;59.472;18.306;2023-04-06T12:37:12;2.50;;;1.33;;
11548;SDS011;61444;59.472;18.306;2023-04-06T12:39:29;2.33;;;1.50;;
11548;SDS011;61444;59.472;18.306;2023-04-06T12:41:42;3.50;;;1.70;;
11548;SDS011;61444;59.472;18.306;2023-04-06T12:43:54;2.67;;;1.50;;
11548;SDS011;61444;59.472;18.306;2023-04-06T12:46:05;1.63;;;1.40;;
11548;SDS011;61444;59.472;18.306;2023-04-06T12:48:15;2.53;;;1.40;;
11548;SDS011;61444;59.472;18.306;2023-04-06T12:50:28;2.80;;;1.53;;
11548;SDS011;61444;59.472;18.306;2023-04-06T12:52:46;1.90;;;1.57;;
11548;SDS011;61444;59.472;18.306;2023-04-06T12:55:01;3.00;;;1.70;;
11548;SDS011;61444;59.472;18.306;2023-04-06T12:57:11;2.27;;;1.70;;
11548;SDS011;61444;59.472;18.306;2023-04-06T12:59:21;3.00;;;1.47;;
11548;SDS011;61444;59.472;18.306;2023-04-06T13:01:34;3.00;;;1.90;;
11548;SDS011;61444;59.472;18.306;2023-04-06T13:03:47;2.10;;;1.60;;
11548;SDS011;61444;59.472;18.306;2023-04-06T13:06:00;4.27;;;1.50;;
11548;SDS011;61444;59.472;18.306;2023-04-06T13:08:12;1.80;;;1.57;;
11548;SDS011;61444;59.472;18.306;2023-04-06T13:10:27;3.73;;;1.73;;
11548;SDS011;61444;59.472;18.306;2023-04-06T13:12:40;2.10;;;1.67;;
11548;SDS011;61444;59.472;18.306;2023-04-06T13:14:51;2.57;;;1.80;;